createdAt,value
2023-05-02T00:00:16.094Z,17.77
2023-05-02T00:03:05.990Z,17.80
2023-05-02T00:05:38.802Z,17.76
2023-05-02T00:08:10.735Z,17.97
2023-05-02T00:10:39.742Z,17.30
2023-05-02T00:13:08.164Z,17.43
2023-05-02T00:15:36.795Z,17.31
2023-05-02T00:18:05.463Z,17.42
2023-05-02T00:20:34.186Z,17.32
2023-05-02T00:23:02.481Z,17.14
2023-05-02T00:25:33.152Z,17.50
2023-05-02T00:28:01.325Z,17.04
2023-05-02T00:30:30.233Z,17.18
2023-05-02T00:32:58.657Z,17.16
2023-05-02T00:35:27.400Z,17.17
2023-05-02T00:37:55.854Z,17.20
2023-05-02T00:40:24.467Z,17.04
2023-05-02T00:42:54.761Z,17.46
2023-05-02T00:45:23.368Z,16.97
2023-05-02T00:47:52.070Z,17.10
2023-05-02T00:50:21.045Z,17.08
2023-05-02T00:52:49.415Z,16.98
2023-05-02T00:55:18.643Z,17.26
2023-05-02T00:57:46.992Z,17.13
2023-05-02T01:00:17.227Z,17.60
2023-05-02T01:02:50.168Z,17.79
2023-05-02T01:05:23.159Z,17.73
2023-05-02T01:08:03.127Z,17.79
2023-05-02T01:10:43.479Z,17.62
2023-05-02T01:13:15.053Z,17.52
2023-05-02T01:15:46.899Z,17.51
2023-05-02T01:18:16.439Z,17.12
2023-05-02T01:20:46.305Z,17.17
2023-05-02T01:23:19.209Z,17.37
2023-05-02T01:25:57.873Z,17.43
2023-05-02T01:28:33.074Z,17.26
2023-05-02T01:31:06.076Z,17.17
2023-05-02T01:33:36.728Z,17.21
2023-05-02T01:36:06.292Z,16.94
2023-05-02T01:38:36.388Z,17.14
2023-05-02T01:41:07.377Z,17.04
2023-05-02T01:43:36.776Z,17.07
2023-05-02T01:46:08.662Z,17.20
2023-05-02T01:48:38.222Z,17.08
2023-05-02T01:51:08.078Z,16.88
2023-05-02T01:53:37.086Z,16.89
2023-05-02T01:56:06.343Z,16.64
2023-05-02T01:58:34.836Z,16.54
2023-05-02T02:01:05.603Z,16.57
2023-05-02T02:03:35.639Z,16.79
2023-05-02T02:06:07.123Z,16.62
2023-05-02T02:08:35.566Z,16.32
2023-05-02T02:11:10.899Z,16.78
2023-05-02T02:13:42.424Z,16.58
2023-05-02T02:16:13.822Z,16.54
2023-05-02T02:18:44.732Z,16.75
2023-05-02T02:21:13.627Z,16.21
2023-05-02T02:23:44.103Z,16.56
2023-05-02T02:26:14.084Z,16.37
2023-05-02T02:28:42.956Z,16.23
2023-05-02T02:31:11.607Z,16.12
2023-05-02T02:33:40.105Z,16.31
2023-05-02T02:36:15.762Z,16.50
2023-05-02T02:38:48.306Z,16.50
2023-05-02T02:41:21.730Z,16.47
2023-05-02T02:43:55.406Z,16.48
2023-05-02T02:46:31.699Z,16.43
2023-05-02T02:49:14.119Z,16.48
2023-05-02T02:51:47.235Z,16.16
2023-05-02T02:54:27.178Z,16.22
2023-05-02T02:57:01.680Z,16.18
2023-05-02T02:59:32.178Z,15.97
2023-05-02T03:02:05.794Z,16.14
2023-05-02T03:04:35.844Z,16.09
2023-05-02T03:07:06.230Z,16.05
2023-05-02T03:09:44.793Z,16.23
2023-05-02T03:12:13.897Z,15.88
2023-05-02T03:14:42.711Z,15.78
2023-05-02T03:17:11.301Z,15.57
2023-05-02T03:19:39.693Z,15.62
2023-05-02T03:22:09.850Z,16.18
2023-05-02T03:24:38.178Z,15.61
2023-05-02T03:27:07.276Z,15.87
2023-05-02T03:29:35.691Z,15.71
2023-05-02T03:32:04.377Z,15.71
2023-05-02T03:34:33.499Z,15.92
2023-05-02T03:37:01.989Z,15.68
2023-05-02T03:39:32.177Z,16.10
2023-05-02T03:42:00.978Z,15.73
2023-05-02T03:44:29.384Z,15.84
2023-05-02T03:46:58.138Z,15.82
2023-05-02T03:49:26.499Z,15.62
2023-05-02T03:51:55.371Z,15.78
2023-05-02T03:54:24.133Z,15.63
2023-05-02T03:56:55.014Z,16.15
2023-05-02T03:59:23.454Z,15.69
2023-05-02T04:01:52.095Z,15.73
2023-05-02T04:04:20.531Z,15.76
2023-05-02T04:06:49.525Z,15.89
2023-05-02T04:09:19.478Z,15.85
2023-05-02T04:11:48.214Z,15.92
2023-05-02T04:14:18.026Z,16.59
2023-05-02T04:16:49.829Z,16.73
2023-05-02T04:19:19.287Z,16.40
2023-05-02T04:21:48.173Z,16.62
2023-05-02T04:24:16.904Z,16.69
2023-05-02T04:26:47.739Z,16.90
2023-05-02T04:29:17.943Z,17.45
2023-05-02T04:31:46.545Z,17.19
2023-05-02T04:34:14.867Z,17.35
2023-05-02T04:36:43.349Z,17.60
2023-05-02T04:39:11.769Z,17.90
2023-05-02T04:41:40.405Z,18.10
2023-05-02T04:44:08.755Z,18.37
2023-05-02T04:46:38.737Z,18.94
2023-05-02T04:49:07.225Z,18.86
2023-05-02T04:51:35.954Z,18.82
2023-05-02T04:54:04.372Z,18.91
2023-05-02T04:56:32.924Z,19.18
2023-05-02T04:59:01.626Z,19.44
2023-05-02T05:01:30.450Z,19.43
2023-05-02T05:04:00.462Z,20.11
2023-05-02T05:06:29.232Z,20.02
2023-05-02T05:08:57.568Z,20.03
2023-05-02T05:11:27.240Z,20.75
2023-05-02T05:13:55.566Z,20.66
2023-05-02T05:16:24.511Z,20.93
2023-05-02T05:18:54.180Z,21.38
2023-05-02T05:21:24.221Z,22.10
2023-05-02T05:23:52.575Z,22.17
2023-05-02T05:26:21.493Z,22.16
2023-05-02T05:28:50.933Z,22.60
2023-05-02T05:31:21.179Z,22.64
2023-05-02T05:33:49.640Z,22.85
2023-05-02T05:36:19.145Z,22.84
2023-05-02T05:38:49.248Z,23.38
2023-05-02T05:41:18.212Z,23.21
2023-05-02T05:43:46.546Z,23.56
2023-05-02T05:46:15.396Z,24.03
2023-05-02T05:48:43.939Z,23.96
2023-05-02T05:51:12.816Z,24.27
2023-05-02T05:53:41.320Z,24.42
2023-05-02T05:56:12.112Z,25.45
2023-05-02T05:58:42.801Z,26.01
2023-05-02T06:01:11.885Z,27.91
2023-05-02T06:03:40.267Z,27.28
2023-05-02T06:06:09.382Z,27.93
2023-05-02T06:08:38.023Z,28.43
2023-05-02T06:11:12.095Z,29.62
2023-05-02T06:13:40.606Z,30.07
2023-05-02T06:16:09.514Z,30.64
2023-05-02T06:18:38.007Z,30.92
2023-05-02T06:21:07.548Z,31.22
2023-05-02T06:23:38.571Z,31.03
2023-05-02T06:26:07.353Z,31.30
2023-05-02T06:28:37.699Z,31.58
2023-05-02T06:31:07.184Z,30.94
2023-05-02T06:33:35.823Z,30.52
2023-05-02T06:36:05.025Z,30.35
2023-05-02T06:38:33.417Z,29.98
2023-05-02T06:41:02.445Z,29.68
2023-05-02T06:43:31.000Z,29.55
2023-05-02T06:46:02.971Z,29.72
2023-05-02T06:48:31.373Z,29.13
2023-05-02T06:51:00.123Z,29.21
2023-05-02T06:53:29.417Z,29.11
2023-05-02T06:55:59.080Z,29.69
2023-05-02T06:58:27.918Z,30.19
2023-05-02T07:00:56.774Z,30.90
2023-05-02T07:03:26.657Z,31.49
2023-05-02T07:05:55.294Z,31.10
2023-05-02T07:08:24.031Z,31.20
2023-05-02T07:10:53.018Z,31.13
2023-05-02T07:13:21.350Z,31.54
2023-05-02T07:15:50.851Z,31.53
2023-05-02T07:18:19.417Z,31.46
2023-05-02T07:20:49.431Z,31.76
2023-05-02T07:23:17.819Z,31.37
2023-05-02T07:25:46.988Z,31.22
2023-05-02T07:28:15.491Z,31.07
2023-05-02T07:30:44.497Z,30.98
2023-05-02T07:33:13.245Z,30.96
2023-05-02T07:35:41.947Z,31.28
2023-05-02T07:38:11.874Z,32.10
2023-05-02T07:40:40.638Z,32.15
2023-05-02T07:43:11.076Z,32.69
2023-05-02T07:45:40.076Z,33.12
2023-05-02T07:48:08.748Z,33.51
2023-05-02T07:50:37.681Z,33.77
2023-05-02T07:53:06.007Z,34.23
2023-05-02T07:55:36.102Z,35.78
2023-05-02T07:58:04.658Z,36.75
2023-05-02T08:00:33.313Z,37.83
2023-05-02T08:03:02.083Z,39.07
2023-05-02T08:05:31.132Z,39.77
2023-05-02T08:08:00.299Z,40.72
2023-05-02T08:10:29.362Z,41.72
2023-05-02T08:12:59.161Z,42.93
2023-05-02T08:15:28.196Z,43.55
2023-05-02T08:17:56.664Z,44.45
2023-05-02T08:20:25.701Z,45.03
2023-05-02T08:22:54.122Z,44.85
2023-05-02T08:25:22.807Z,45.10
2023-05-02T08:27:51.288Z,45.49
2023-05-02T08:30:21.302Z,45.83
2023-05-02T08:32:49.781Z,45.48
2023-05-02T08:35:19.076Z,45.54
2023-05-02T08:37:47.652Z,45.53
2023-05-02T08:40:27.288Z,45.66
2023-05-02T08:43:03.076Z,44.76
2023-05-02T08:45:39.211Z,43.32
2023-05-02T08:48:10.680Z,40.71
2023-05-02T08:50:41.733Z,38.62
2023-05-02T08:53:11.580Z,37.48
2023-05-02T08:55:41.171Z,37.75
2023-05-02T08:58:10.886Z,37.85
2023-05-02T09:00:44.119Z,36.79
2023-05-02T09:03:21.322Z,35.35
2023-05-02T09:05:54.863Z,34.00
2023-05-02T09:08:24.382Z,33.00
2023-05-02T09:10:53.337Z,32.55
2023-05-02T09:13:32.275Z,32.75
2023-05-02T09:16:03.795Z,32.29
2023-05-02T09:18:33.402Z,32.02
2023-05-02T09:21:03.465Z,32.18
2023-05-02T09:23:38.857Z,32.68
2023-05-02T09:26:15.274Z,33.72
2023-05-02T09:28:45.367Z,33.50
2023-05-02T09:31:26.940Z,34.97
2023-05-02T09:34:09.975Z,34.07
2023-05-02T09:36:42.194Z,32.68
2023-05-02T09:39:13.692Z,32.01
2023-05-02T09:41:43.198Z,32.27
2023-05-02T09:44:12.745Z,33.79
2023-05-02T09:46:44.303Z,34.08
2023-05-02T09:49:14.942Z,32.84
2023-05-02T09:51:44.270Z,31.75
2023-05-02T09:54:13.130Z,31.20
2023-05-02T09:56:56.808Z,33.29
2023-05-02T09:59:26.000Z,34.10
2023-05-02T10:02:00.342Z,36.68
2023-05-02T10:04:30.081Z,36.83
2023-05-02T10:06:59.568Z,35.33
2023-05-02T10:09:28.894Z,34.53
2023-05-02T10:11:58.364Z,34.08
2023-05-02T10:14:29.691Z,34.28
2023-05-02T10:17:04.006Z,34.42
2023-05-02T10:19:40.770Z,34.20
2023-05-02T10:22:10.112Z,34.16
2023-05-02T10:24:40.052Z,35.36
2023-05-02T10:27:09.058Z,36.06
2023-05-02T10:29:37.919Z,35.75
2023-05-02T10:32:09.124Z,35.57
2023-05-02T10:34:38.104Z,34.63
2023-05-02T10:37:07.204Z,34.10
2023-05-02T10:39:35.798Z,34.06
2023-05-02T10:42:05.756Z,34.28
2023-05-02T10:44:35.044Z,34.52
2023-05-02T10:47:21.983Z,35.49
2023-05-02T10:49:54.574Z,34.07
2023-05-02T10:52:27.700Z,33.38
2023-05-02T10:55:18.183Z,33.81
2023-05-02T10:58:23.766Z,33.56
2023-05-02T11:00:52.405Z,32.30
2023-05-02T11:03:58.349Z,32.67
2023-05-02T11:06:28.437Z,31.94
2023-05-02T11:09:30.571Z,32.14
2023-05-02T11:11:59.761Z,31.62
2023-05-02T11:14:45.061Z,32.63
2023-05-02T11:17:14.200Z,32.09
2023-05-02T11:20:28.756Z,32.95
2023-05-02T11:23:26.219Z,33.17
2023-05-02T11:25:57.530Z,32.70
2023-05-02T11:28:42.258Z,33.20
2023-05-02T11:31:32.361Z,32.43
2023-05-02T11:34:03.080Z,32.60
2023-05-02T11:36:33.821Z,32.02
2023-05-02T11:39:03.356Z,31.88
2023-05-02T11:41:41.338Z,32.11
2023-05-02T11:44:09.662Z,31.35
2023-05-02T11:46:39.680Z,31.69
2023-05-02T11:49:10.992Z,31.75
2023-05-02T11:51:40.818Z,31.48
2023-05-02T11:54:10.633Z,31.34
2023-05-02T11:56:42.021Z,31.23
2023-05-02T11:59:11.395Z,30.69
2023-05-02T12:01:49.408Z,31.32
2023-05-02T12:04:24.150Z,31.08
2023-05-02T12:06:56.985Z,31.46
2023-05-02T12:09:25.816Z,30.78
2023-05-02T12:11:54.992Z,30.56
2023-05-02T12:14:30.511Z,30.96
2023-05-02T12:17:00.160Z,30.60
2023-05-02T12:19:30.334Z,30.80
2023-05-02T12:22:00.205Z,30.59
2023-05-02T12:24:30.069Z,29.89
2023-05-02T12:27:12.235Z,30.56
2023-05-02T12:29:41.940Z,30.10
2023-05-02T12:32:10.775Z,30.01
2023-05-02T12:34:41.454Z,30.27
2023-05-02T12:37:12.053Z,29.94
2023-05-02T12:39:42.482Z,29.94
2023-05-02T12:42:12.565Z,29.92
2023-05-02T12:44:42.322Z,29.78
2023-05-02T12:47:12.550Z,29.41
2023-05-02T12:49:52.000Z,29.63
2023-05-02T12:52:21.484Z,28.86
2023-05-02T12:54:50.205Z,28.80
2023-05-02T12:57:26.299Z,29.11
2023-05-02T12:59:55.535Z,28.67
2023-05-02T13:02:24.769Z,28.50
2023-05-02T13:04:54.920Z,28.85
2023-05-02T13:07:23.800Z,28.54
2023-05-02T13:09:53.038Z,28.64
2023-05-02T13:12:22.200Z,28.73
2023-05-02T13:14:50.789Z,28.85
2023-05-02T13:17:19.470Z,28.71
2023-05-02T13:19:57.916Z,28.76
2023-05-02T13:22:31.652Z,29.13
2023-05-02T13:24:59.858Z,28.88
2023-05-02T13:27:28.865Z,28.86
2023-05-02T13:29:57.791Z,28.97
2023-05-02T13:32:27.011Z,28.79
2023-05-02T13:34:55.542Z,28.51
2023-05-02T13:37:24.150Z,28.35
2023-05-02T13:39:54.099Z,28.66
2023-05-02T13:42:23.043Z,28.41
2023-05-02T13:44:51.317Z,28.40
2023-05-02T13:47:20.207Z,28.31
2023-05-02T13:49:48.533Z,28.06
2023-05-02T13:52:17.471Z,28.10
2023-05-02T13:54:45.797Z,28.02
2023-05-02T13:57:16.009Z,28.31
2023-05-02T13:59:44.359Z,27.95
2023-05-02T14:02:13.111Z,27.76
2023-05-02T14:04:41.771Z,27.41
2023-05-02T14:07:11.495Z,26.94
2023-05-02T14:09:39.941Z,26.75
2023-05-02T14:12:08.427Z,26.52
2023-05-02T14:14:38.484Z,26.80
2023-05-02T14:17:07.108Z,26.00
2023-05-02T14:19:35.896Z,25.90
2023-05-02T14:22:04.748Z,25.81
2023-05-02T14:24:33.020Z,25.86
2023-05-02T14:27:01.790Z,25.98
2023-05-02T14:29:30.092Z,26.14
2023-05-02T14:32:00.423Z,26.54
2023-05-02T14:34:28.980Z,26.10
2023-05-02T14:36:57.730Z,26.05
2023-05-02T14:39:27.739Z,25.91
2023-05-02T14:41:56.297Z,25.96
2023-05-02T14:44:24.903Z,26.00
2023-05-02T14:46:55.822Z,26.38
2023-05-02T14:49:25.743Z,26.23
2023-05-02T14:51:56.278Z,25.70
2023-05-02T14:54:28.406Z,25.80
2023-05-02T14:56:58.474Z,25.42
2023-05-02T14:59:29.937Z,25.70
2023-05-02T15:01:58.907Z,25.18
2023-05-02T15:04:28.836Z,25.39
2023-05-02T15:06:58.557Z,25.19
2023-05-02T15:09:27.394Z,25.04
2023-05-02T15:11:56.657Z,24.99
2023-05-02T15:14:25.161Z,24.94
2023-05-02T15:16:55.124Z,24.96
2023-05-02T15:19:25.369Z,24.84
2023-05-02T15:21:57.392Z,25.03
2023-05-02T15:24:25.920Z,24.59
2023-05-02T15:26:54.551Z,24.61
2023-05-02T15:29:23.011Z,24.78
2023-05-02T15:31:51.581Z,24.42
2023-05-02T15:34:20.412Z,24.19
2023-05-02T15:36:49.246Z,24.07
2023-05-02T15:39:19.452Z,24.33
2023-05-02T15:41:48.611Z,24.07
2023-05-02T15:44:16.988Z,23.90
2023-05-02T15:46:47.240Z,23.77
2023-05-02T15:49:15.708Z,23.60
2023-05-02T15:51:44.339Z,23.47
2023-05-02T15:54:12.908Z,23.39
2023-05-02T15:56:43.880Z,23.72
2023-05-02T15:59:12.117Z,23.34
2023-05-02T16:01:40.787Z,23.18
2023-05-02T16:04:10.006Z,22.94
2023-05-02T16:06:41.762Z,23.04
2023-05-02T16:09:10.256Z,23.94
2023-05-02T16:11:38.955Z,22.76
2023-05-02T16:14:08.557Z,22.91
2023-05-02T16:16:37.207Z,22.49
2023-05-02T16:19:12.635Z,22.43
2023-05-02T16:21:42.173Z,22.52
2023-05-02T16:24:10.726Z,22.33
2023-05-02T16:26:39.262Z,22.18
2023-05-02T16:29:08.921Z,22.45
2023-05-02T16:31:37.696Z,22.05
2023-05-02T16:34:06.146Z,21.97
2023-05-02T16:36:34.837Z,21.95
2023-05-02T16:39:03.168Z,21.81
2023-05-02T16:41:31.848Z,21.79
2023-05-02T16:44:00.168Z,21.81
2023-05-02T16:46:30.193Z,22.12
2023-05-02T16:48:58.699Z,21.77
2023-05-02T16:53:56.330Z,21.51
2023-05-02T16:56:24.948Z,21.50
2023-05-02T16:58:53.148Z,21.44
2023-05-02T17:01:22.696Z,21.43
2023-05-02T17:03:52.435Z,21.73
2023-05-02T17:06:21.347Z,21.43
2023-05-02T17:08:49.905Z,21.26
2023-05-02T17:11:18.736Z,21.26
2023-05-02T17:13:49.869Z,21.16
2023-05-02T17:16:20.088Z,21.13
2023-05-02T17:18:49.080Z,21.07
2023-05-02T17:21:19.340Z,21.32
2023-05-02T17:23:47.638Z,20.89
2023-05-02T17:26:16.815Z,20.78
2023-05-02T17:28:46.040Z,20.80
2023-05-02T17:31:14.794Z,20.76
2023-05-02T17:33:43.235Z,20.76
2023-05-02T17:36:12.032Z,20.59
2023-05-02T17:38:42.766Z,20.90
2023-05-02T17:41:11.641Z,20.50
2023-05-02T17:43:42.484Z,20.44
2023-05-02T17:46:11.370Z,20.37
2023-05-02T17:48:40.647Z,20.26
2023-05-02T17:51:09.470Z,20.10
2023-05-02T17:53:37.862Z,20.08
2023-05-02T17:56:08.725Z,20.45
2023-05-02T17:58:37.676Z,20.06
2023-05-02T18:01:10.688Z,20.45
2023-05-02T18:03:39.587Z,19.84
2023-05-02T18:06:10.297Z,19.98
2023-05-02T18:08:38.853Z,19.72
2023-05-02T18:11:15.221Z,20.28
2023-05-02T18:13:43.848Z,19.59
2023-05-02T18:16:14.268Z,19.41
2023-05-02T18:18:42.758Z,19.12
2023-05-02T18:21:11.741Z,19.03
2023-05-02T18:23:40.889Z,18.84
2023-05-02T18:26:14.401Z,19.06
2023-05-02T18:28:44.573Z,18.38
2023-05-02T18:31:17.890Z,18.69
2023-05-02T18:33:47.155Z,18.19
2023-05-02T18:36:19.316Z,18.04
2023-05-02T18:38:47.960Z,18.17
2023-05-02T18:41:18.494Z,18.41
2023-05-02T18:43:46.830Z,18.05
2023-05-02T18:46:15.488Z,18.06
2023-05-02T18:48:43.834Z,18.17
2023-05-02T18:51:12.652Z,18.23
2023-05-02T18:53:41.054Z,18.45
2023-05-02T18:56:13.936Z,19.02
2023-05-02T18:58:43.877Z,19.03
2023-05-02T19:01:15.341Z,18.95
2023-05-02T19:03:44.609Z,18.98
2023-05-02T19:06:14.319Z,19.21
2023-05-02T19:08:42.594Z,18.97
2023-05-02T19:11:11.093Z,19.05
2023-05-02T19:13:39.720Z,19.01
2023-05-02T19:16:13.678Z,19.47
2023-05-02T19:18:43.517Z,18.95
2023-05-02T19:21:13.660Z,19.08
2023-05-02T19:23:43.099Z,18.93
2023-05-02T19:26:13.077Z,19.15
2023-05-02T19:28:41.790Z,18.88
2023-05-02T19:31:12.740Z,18.97
2023-05-02T19:33:41.672Z,18.90
2023-05-02T19:36:10.530Z,18.81
2023-05-02T19:38:39.151Z,18.69
2023-05-02T19:41:08.801Z,18.94
2023-05-02T19:43:37.133Z,18.64
2023-05-02T19:46:05.842Z,18.69
2023-05-02T19:48:35.782Z,19.04
2023-05-02T19:51:05.345Z,18.84
2023-05-02T19:53:34.566Z,18.67
2023-05-02T19:56:04.991Z,18.82
2023-05-02T19:58:33.293Z,18.49
2023-05-02T20:01:02.097Z,18.50
2023-05-02T20:03:30.472Z,18.58
2023-05-02T20:06:00.771Z,18.85
2023-05-02T20:08:31.679Z,18.69
2023-05-02T20:11:00.300Z,18.48
2023-05-02T20:13:28.719Z,18.51
2023-05-02T20:15:57.206Z,18.52
2023-05-02T20:18:25.677Z,18.49
2023-05-02T20:20:54.135Z,18.43
2023-05-02T20:23:23.801Z,18.75
2023-05-02T20:25:52.443Z,18.41
2023-05-02T20:28:20.793Z,18.44
2023-05-02T20:30:49.587Z,18.56
2023-05-02T20:33:18.405Z,18.59
2023-05-02T20:35:47.197Z,18.61
2023-05-02T20:38:18.001Z,18.71
2023-05-02T20:40:47.889Z,19.08
2023-05-02T20:43:19.007Z,18.62
2023-05-02T20:45:47.490Z,19.72
2023-05-02T20:48:17.447Z,18.93
2023-05-02T20:50:53.573Z,19.19
2023-05-02T20:53:23.890Z,18.53
2023-05-02T20:55:54.141Z,18.87
2023-05-02T20:58:22.324Z,18.49
2023-05-02T21:00:52.767Z,18.46
2023-05-02T21:03:24.070Z,18.37
2023-05-02T21:05:53.514Z,18.43
2023-05-02T21:08:21.669Z,18.21
2023-05-02T21:10:50.586Z,18.23
2023-05-02T21:13:20.166Z,18.49
2023-05-02T21:15:48.705Z,18.11
2023-05-02T21:18:17.217Z,18.07
2023-05-02T21:20:45.924Z,18.06
2023-05-02T21:23:14.137Z,18.00
2023-05-02T21:25:42.950Z,17.92
2023-05-02T21:28:12.755Z,18.16
2023-05-02T21:30:42.757Z,18.22
2023-05-02T21:33:11.009Z,17.80
2023-05-02T21:35:39.591Z,17.90
2023-05-02T21:38:08.029Z,17.81
2023-05-02T21:40:37.440Z,17.87
2023-05-02T21:43:06.103Z,17.69
2023-05-02T21:45:36.019Z,17.73
2023-05-02T21:48:06.648Z,18.04
2023-05-02T21:50:35.362Z,17.74
2023-05-02T21:53:03.753Z,17.66
2023-05-02T21:55:32.360Z,17.57
2023-05-02T21:58:00.583Z,17.49
2023-05-02T22:00:29.149Z,17.46
2023-05-02T22:02:57.569Z,17.38
2023-05-02T22:05:28.296Z,17.73
2023-05-02T22:07:57.224Z,17.22
2023-05-02T22:10:26.007Z,17.24
2023-05-02T22:12:54.311Z,17.26
2023-05-02T22:15:22.918Z,17.21
2023-05-02T22:17:51.572Z,17.25
2023-05-02T22:20:20.210Z,17.10
2023-05-02T22:22:50.229Z,17.44
2023-05-02T22:25:19.056Z,17.10
2023-05-02T22:27:48.562Z,17.41
2023-05-02T22:30:17.524Z,17.12
2023-05-02T22:32:46.132Z,16.99
2023-05-02T22:35:15.076Z,17.12
2023-05-02T22:37:43.498Z,16.86
2023-05-02T22:40:14.427Z,17.37
2023-05-02T22:42:42.744Z,17.00
2023-05-02T22:45:13.608Z,17.17
2023-05-02T22:47:42.078Z,16.95
2023-05-02T22:50:11.524Z,16.87
2023-05-02T22:52:40.062Z,16.76
2023-05-02T22:55:10.376Z,17.02
2023-05-02T22:57:40.324Z,17.04
2023-05-02T23:00:10.818Z,16.91
2023-05-02T23:02:39.573Z,16.60
2023-05-02T23:05:09.846Z,16.71
2023-05-02T23:07:38.248Z,16.44
2023-05-02T23:10:08.286Z,16.67
2023-05-02T23:12:37.068Z,16.59
2023-05-02T23:15:09.105Z,16.95
2023-05-02T23:17:39.028Z,16.87
2023-05-02T23:20:10.359Z,16.82
2023-05-02T23:22:44.833Z,17.01
2023-05-02T23:25:13.904Z,16.71
2023-05-02T23:27:42.522Z,16.58
2023-05-02T23:30:13.180Z,16.95
2023-05-02T23:32:41.623Z,16.53
2023-05-02T23:35:12.200Z,16.74
2023-05-02T23:37:40.602Z,16.37
2023-05-02T23:40:10.565Z,16.43
2023-05-02T23:42:40.585Z,16.11
2023-05-02T23:45:09.620Z,16.20
2023-05-02T23:47:40.010Z,16.33
2023-05-02T23:50:09.513Z,16.13
2023-05-02T23:52:38.036Z,15.83
2023-05-02T23:55:10.657Z,16.15
2023-05-02T23:57:39.469Z,15.87
